createdAt,value
2019-01-27T00:00:18.245Z,7.26
2019-01-27T00:01:18.247Z,7.39
2019-01-27T00:02:18.227Z,7.24
2019-01-27T00:03:18.216Z,7.29
2019-01-27T00:04:18.905Z,7.36
2019-01-27T00:05:18.199Z,7.31
2019-01-27T00:06:18.188Z,7.26
2019-01-27T00:07:18.179Z,7.31
2019-01-27T00:08:18.159Z,7.28
2019-01-27T00:09:18.175Z,7.39
2019-01-27T00:10:18.136Z,7.34
2019-01-27T00:11:18.128Z,7.24
2019-01-27T00:12:18.124Z,7.40
2019-01-27T00:13:18.123Z,7.46
2019-01-27T00:14:18.126Z,7.37
2019-01-27T00:15:18.087Z,7.40
2019-01-27T00:16:18.079Z,7.42
2019-01-27T00:17:18.062Z,7.36
2019-01-27T00:18:18.052Z,7.42
2019-01-27T00:19:18.067Z,7.39
2019-01-27T00:20:18.034Z,7.39
2019-01-27T00:21:18.017Z,7.39
2019-01-27T00:22:18.195Z,7.37
2019-01-27T00:23:18.039Z,7.40
2019-01-27T00:24:18.009Z,7.36
2019-01-27T00:25:17.986Z,7.39
2019-01-27T00:26:17.967Z,7.39
2019-01-27T00:27:17.956Z,7.34
2019-01-27T00:28:17.945Z,7.50
2019-01-27T00:29:17.934Z,7.47
2019-01-27T00:30:17.940Z,7.44
2019-01-27T00:31:17.911Z,7.50
2019-01-27T00:32:17.903Z,7.46
2019-01-27T00:33:17.908Z,7.50
2019-01-27T00:34:17.876Z,7.52
2019-01-27T00:35:17.899Z,7.50
2019-01-27T00:36:17.860Z,7.60
2019-01-27T00:37:17.866Z,7.52
2019-01-27T00:38:17.839Z,7.49
2019-01-27T00:39:17.849Z,7.52
2019-01-27T00:40:17.810Z,7.47
2019-01-27T00:41:17.804Z,7.47
2019-01-27T00:42:17.796Z,7.57
2019-01-27T00:43:17.778Z,7.52
2019-01-27T00:44:17.764Z,7.52
2019-01-27T00:45:17.782Z,7.50
2019-01-27T00:46:17.748Z,7.44
2019-01-27T00:47:17.733Z,7.47
2019-01-27T00:48:17.726Z,7.34
2019-01-27T00:49:17.728Z,7.40
2019-01-27T00:50:17.701Z,7.34
2019-01-27T00:51:17.694Z,7.43
2019-01-27T00:52:17.680Z,7.37
2019-01-27T00:53:17.677Z,7.37
2019-01-27T00:54:17.707Z,7.36
2019-01-27T00:55:17.671Z,7.46
2019-01-27T00:56:17.641Z,7.39
2019-01-27T00:57:17.631Z,7.39
2019-01-27T00:58:17.613Z,7.39
2019-01-27T00:59:17.605Z,7.33
2019-01-27T01:00:17.618Z,7.33
2019-01-27T01:01:17.584Z,7.34
2019-01-27T01:02:17.581Z,7.33
2019-01-27T01:03:17.562Z,7.24
2019-01-27T01:04:17.551Z,7.33
2019-01-27T01:05:17.560Z,7.36
2019-01-27T01:06:17.551Z,7.29
2019-01-27T01:07:17.578Z,7.29
2019-01-27T01:08:17.512Z,7.26
2019-01-27T01:09:17.585Z,7.33
2019-01-27T01:10:17.494Z,7.28
2019-01-27T01:11:17.504Z,7.29
2019-01-27T01:12:17.584Z,7.28
2019-01-27T01:13:17.619Z,7.31
2019-01-27T01:14:17.449Z,7.29
2019-01-27T01:15:17.485Z,7.33
2019-01-27T01:16:17.451Z,7.28
2019-01-27T01:17:17.405Z,7.21
2019-01-27T01:18:17.409Z,7.25
2019-01-27T01:19:17.385Z,7.19
2019-01-27T01:20:17.377Z,7.21
2019-01-27T01:21:17.390Z,7.21
2019-01-27T01:22:17.377Z,7.26
2019-01-27T01:23:17.342Z,7.18
2019-01-27T01:24:17.341Z,7.13
2019-01-27T01:25:17.320Z,7.10
2019-01-27T01:26:17.329Z,7.13
2019-01-27T01:27:17.315Z,7.04
2019-01-27T01:28:17.302Z,7.06
2019-01-27T01:29:17.276Z,7.01
2019-01-27T01:30:17.263Z,7.04
2019-01-27T01:31:17.254Z,6.97
2019-01-27T01:32:17.262Z,6.96
2019-01-27T01:33:17.237Z,6.91
2019-01-27T01:34:17.230Z,6.93
2019-01-27T01:35:17.210Z,6.99
2019-01-27T01:36:17.199Z,6.96
2019-01-27T01:37:17.208Z,6.86
2019-01-27T01:38:17.177Z,6.91
2019-01-27T01:39:17.168Z,6.86
2019-01-27T01:40:17.162Z,6.91
2019-01-27T01:41:17.157Z,6.92
2019-01-27T01:42:17.169Z,6.89
2019-01-27T01:43:17.125Z,6.89
2019-01-27T01:44:17.121Z,6.91
2019-01-27T01:45:17.108Z,6.91
2019-01-27T01:46:17.094Z,6.88
2019-01-27T01:47:17.094Z,6.88
2019-01-27T01:48:17.095Z,6.89
2019-01-27T01:49:17.061Z,6.89
2019-01-27T01:50:17.073Z,6.82
2019-01-27T01:51:17.044Z,6.79
2019-01-27T01:52:17.049Z,6.83
2019-01-27T01:53:17.019Z,6.78
2019-01-27T01:54:17.010Z,6.86
2019-01-27T01:55:16.996Z,6.78
2019-01-27T01:56:16.998Z,6.81
2019-01-27T01:57:17.001Z,6.73
2019-01-27T01:58:16.974Z,6.81
2019-01-27T01:59:16.954Z,6.74
2019-01-27T02:00:16.939Z,6.65
2019-01-27T02:01:16.930Z,6.75
2019-01-27T02:02:16.956Z,6.71
2019-01-27T02:03:16.915Z,6.68
2019-01-27T02:04:16.894Z,6.64
2019-01-27T02:05:16.882Z,6.61
2019-01-27T02:06:16.902Z,6.64
2019-01-27T02:07:16.868Z,6.70
2019-01-27T02:08:16.912Z,6.63
2019-01-27T02:09:16.838Z,6.61
2019-01-27T02:10:16.831Z,6.63
2019-01-27T02:11:16.820Z,6.53
2019-01-27T02:12:16.808Z,6.53
2019-01-27T02:13:16.818Z,6.53
2019-01-27T02:14:16.786Z,6.49
2019-01-27T02:15:16.778Z,6.49
2019-01-27T02:16:16.770Z,6.50
2019-01-27T02:17:16.822Z,6.46
2019-01-27T02:18:16.748Z,6.57
2019-01-27T02:19:16.737Z,6.49
2019-01-27T02:20:16.732Z,6.43
2019-01-27T02:21:16.729Z,6.45
2019-01-27T02:22:16.705Z,6.47
2019-01-27T02:23:16.715Z,6.50
2019-01-27T02:24:16.675Z,6.50
2019-01-27T02:25:16.668Z,6.47
2019-01-27T02:26:16.677Z,6.47
2019-01-27T02:27:16.653Z,6.49
2019-01-27T02:28:16.653Z,6.45
2019-01-27T02:29:16.622Z,6.46
2019-01-27T02:30:16.619Z,6.50
2019-01-27T02:31:16.599Z,6.49
2019-01-27T02:32:16.600Z,6.37
2019-01-27T02:33:16.611Z,6.47
2019-01-27T02:34:16.586Z,6.50
2019-01-27T02:35:16.565Z,6.45
2019-01-27T02:36:16.553Z,6.49
2019-01-27T02:37:16.551Z,6.43
2019-01-27T02:38:16.525Z,6.45
2019-01-27T02:39:16.542Z,6.42
2019-01-27T02:40:16.509Z,6.47
2019-01-27T02:41:16.500Z,6.40
2019-01-27T02:42:16.494Z,6.38
2019-01-27T02:43:16.479Z,6.47
2019-01-27T02:44:16.486Z,6.43
2019-01-27T02:45:16.466Z,6.43
2019-01-27T02:46:16.472Z,6.47
2019-01-27T02:47:16.453Z,6.42
2019-01-27T02:48:16.449Z,6.49
2019-01-27T02:49:16.439Z,6.50
2019-01-27T02:50:16.409Z,6.42
2019-01-27T02:51:16.391Z,6.47
2019-01-27T02:52:16.408Z,6.42
2019-01-27T02:53:16.375Z,6.40
2019-01-27T02:54:16.392Z,6.40
2019-01-27T02:55:16.352Z,6.43
2019-01-27T02:56:16.331Z,6.45
2019-01-27T02:57:16.318Z,6.43
2019-01-27T02:58:16.312Z,6.46
2019-01-27T02:59:16.324Z,6.43
2019-01-27T03:00:16.295Z,6.45
2019-01-27T03:01:16.280Z,6.46
2019-01-27T03:02:16.274Z,6.42
2019-01-27T03:03:16.266Z,6.38
2019-01-27T03:04:16.293Z,6.56
2019-01-27T03:05:16.235Z,6.45
2019-01-27T03:06:16.227Z,6.56
2019-01-27T03:07:16.219Z,6.40
2019-01-27T03:08:16.205Z,6.37
2019-01-27T03:09:16.209Z,6.42
2019-01-27T03:10:16.207Z,6.45
2019-01-27T03:11:16.173Z,6.42
2019-01-27T03:12:16.171Z,6.45
2019-01-27T03:13:16.149Z,6.45
2019-01-27T03:14:16.136Z,6.46
2019-01-27T03:15:16.147Z,6.56
2019-01-27T03:16:16.119Z,6.45
2019-01-27T03:17:16.103Z,6.45
2019-01-27T03:18:16.098Z,6.45
2019-01-27T03:19:16.084Z,6.55
2019-01-27T03:20:16.096Z,6.55
2019-01-27T03:21:16.069Z,6.55
2019-01-27T03:22:16.052Z,6.57
2019-01-27T03:23:16.089Z,6.53
2019-01-27T03:24:16.030Z,6.47
2019-01-27T03:25:16.073Z,6.56
2019-01-27T03:26:16.014Z,6.65
2019-01-27T03:27:16.053Z,6.57
2019-01-27T03:28:15.993Z,6.64
2019-01-27T03:29:15.981Z,6.61
2019-01-27T03:30:15.975Z,6.74
2019-01-27T03:31:15.978Z,6.70
2019-01-27T03:32:15.944Z,6.78
2019-01-27T03:33:15.940Z,6.68
2019-01-27T03:34:15.926Z,6.74
2019-01-27T03:35:15.947Z,6.91
2019-01-27T03:36:15.923Z,6.88
2019-01-27T03:37:15.917Z,6.93
2019-01-27T03:38:15.884Z,6.97
2019-01-27T03:39:15.876Z,6.92
2019-01-27T03:40:15.856Z,6.92
2019-01-27T03:41:15.901Z,6.96
2019-01-27T03:42:15.837Z,6.99
2019-01-27T03:43:15.830Z,6.96
2019-01-27T03:44:15.822Z,7.00
2019-01-27T03:45:15.816Z,6.99
2019-01-27T03:46:15.795Z,7.08
2019-01-27T03:47:15.806Z,7.04
2019-01-27T03:48:15.778Z,7.01
2019-01-27T03:49:15.777Z,7.08
2019-01-27T03:50:15.800Z,7.11
2019-01-27T03:51:15.748Z,7.06
2019-01-27T03:52:15.759Z,7.11
2019-01-27T03:53:15.716Z,7.06
2019-01-27T03:54:15.713Z,7.08
2019-01-27T03:55:15.700Z,7.10
2019-01-27T03:56:15.709Z,7.13
2019-01-27T03:57:15.675Z,7.10
2019-01-27T03:58:15.674Z,7.08
2019-01-27T03:59:15.659Z,7.08
2019-01-27T04:00:15.654Z,7.10
2019-01-27T04:01:15.660Z,7.13
2019-01-27T04:02:15.624Z,7.08
2019-01-27T04:03:15.633Z,7.08
2019-01-27T04:04:15.605Z,7.06
2019-01-27T04:05:15.588Z,7.15
2019-01-27T04:06:15.580Z,7.15
2019-01-27T04:07:15.657Z,7.16
2019-01-27T04:08:15.559Z,7.21
2019-01-27T04:09:15.551Z,7.13
2019-01-27T04:10:15.531Z,7.19
2019-01-27T04:11:15.526Z,7.18
2019-01-27T04:12:15.538Z,7.22
2019-01-27T04:13:15.507Z,7.22
2019-01-27T04:14:15.488Z,7.24
2019-01-27T04:15:15.493Z,7.18
2019-01-27T04:16:15.510Z,7.13
2019-01-27T04:17:15.491Z,7.21
2019-01-27T04:18:15.449Z,7.16
2019-01-27T04:19:15.447Z,7.16
2019-01-27T04:20:15.457Z,7.15
2019-01-27T04:21:15.421Z,7.16
2019-01-27T04:22:15.444Z,7.24
2019-01-27T04:23:15.400Z,7.16
2019-01-27T04:24:15.381Z,7.21
2019-01-27T04:25:15.375Z,7.16
2019-01-27T04:26:15.385Z,7.22
2019-01-27T04:27:15.382Z,7.28
2019-01-27T04:28:15.338Z,7.21
2019-01-27T04:29:15.334Z,7.24
2019-01-27T04:30:15.316Z,7.22
2019-01-27T04:31:15.303Z,7.24
2019-01-27T04:32:15.293Z,7.21
2019-01-27T04:33:15.330Z,7.21
2019-01-27T04:34:15.271Z,7.29
2019-01-27T04:35:15.283Z,7.26
2019-01-27T04:36:15.250Z,7.26
2019-01-27T04:37:15.238Z,7.26
2019-01-27T04:38:15.246Z,7.33
2019-01-27T04:39:15.218Z,7.33
2019-01-27T04:40:15.213Z,7.28
2019-01-27T04:41:15.195Z,7.28
2019-01-27T04:42:15.187Z,7.26
2019-01-27T04:43:15.224Z,7.33
2019-01-27T04:44:15.168Z,7.25
2019-01-27T04:45:15.154Z,7.24
2019-01-27T04:46:15.184Z,7.25
2019-01-27T04:47:15.138Z,7.25
2019-01-27T04:48:15.153Z,7.28
2019-01-27T04:49:15.115Z,7.22
2019-01-27T04:50:15.096Z,7.24
2019-01-27T04:51:15.126Z,7.29
2019-01-27T04:52:15.075Z,7.28
2019-01-27T04:53:15.063Z,7.34
2019-01-27T04:54:15.078Z,7.31
2019-01-27T04:55:15.044Z,7.26
2019-01-27T04:56:15.036Z,7.21
2019-01-27T04:57:15.024Z,7.19
2019-01-27T04:58:15.040Z,7.21
2019-01-27T04:59:14.999Z,7.28
2019-01-27T05:00:14.988Z,7.25
2019-01-27T05:01:14.977Z,7.26
2019-01-27T05:02:14.990Z,7.26
2019-01-27T05:03:14.956Z,7.28
2019-01-27T05:04:16.447Z,7.28
2019-01-27T05:05:14.940Z,7.25
2019-01-27T05:06:14.959Z,7.21
2019-01-27T05:07:14.935Z,7.31
2019-01-27T05:08:14.904Z,7.29
2019-01-27T05:09:14.916Z,7.33
2019-01-27T05:10:14.884Z,7.31
2019-01-27T05:11:14.869Z,7.24
2019-01-27T05:12:14.862Z,7.31
2019-01-27T05:13:14.848Z,7.31
2019-01-27T05:14:14.862Z,7.25
2019-01-27T05:15:14.825Z,7.24
2019-01-27T05:16:14.841Z,7.28
2019-01-27T05:17:14.815Z,7.31
2019-01-27T05:18:14.812Z,7.24
2019-01-27T05:19:14.806Z,7.28
2019-01-27T05:20:14.778Z,7.28
2019-01-27T05:21:14.775Z,7.36
2019-01-27T05:22:14.754Z,7.21
2019-01-27T05:23:14.737Z,7.28
2019-01-27T05:24:14.731Z,7.37
2019-01-27T05:25:14.789Z,7.28
2019-01-27T05:26:14.730Z,7.25
2019-01-27T05:27:14.731Z,7.31
2019-01-27T05:28:14.698Z,7.29
2019-01-27T05:29:14.693Z,7.34
2019-01-27T05:30:14.660Z,7.33
2019-01-27T05:31:14.669Z,7.26
2019-01-27T05:32:14.667Z,7.34
2019-01-27T05:33:14.650Z,7.26
2019-01-27T05:34:14.617Z,7.22
2019-01-27T05:35:14.607Z,7.28
2019-01-27T05:36:14.617Z,7.26
2019-01-27T05:37:14.582Z,7.25
2019-01-27T05:38:14.573Z,7.22
2019-01-27T05:39:14.580Z,7.24
2019-01-27T05:40:14.561Z,7.22
2019-01-27T05:41:14.562Z,7.24
2019-01-27T05:42:14.542Z,7.18
2019-01-27T05:43:14.529Z,7.19
2019-01-27T05:44:14.522Z,7.16
2019-01-27T05:45:14.555Z,7.08
2019-01-27T05:46:14.510Z,7.11
2019-01-27T05:47:14.481Z,7.10
2019-01-27T05:48:14.467Z,7.04
2019-01-27T05:49:14.453Z,6.99
2019-01-27T05:50:14.439Z,7.01
2019-01-27T05:51:14.458Z,6.99
2019-01-27T05:52:14.455Z,7.04
2019-01-27T05:53:14.448Z,6.99
2019-01-27T05:54:14.405Z,7.01
2019-01-27T05:55:14.386Z,6.99
2019-01-27T05:56:14.397Z,7.01
2019-01-27T05:57:14.451Z,6.92
2019-01-27T05:58:14.362Z,6.99
2019-01-27T05:59:14.341Z,6.99
2019-01-27T06:00:14.335Z,7.00
2019-01-27T06:01:14.350Z,6.97
2019-01-27T06:02:21.894Z,6.91
2019-01-27T06:03:14.298Z,7.03
2019-01-27T06:04:14.303Z,7.01
2019-01-27T06:05:14.284Z,6.96
2019-01-27T06:06:14.294Z,6.93
2019-01-27T06:07:14.282Z,6.85
2019-01-27T06:08:14.245Z,6.86
2019-01-27T06:09:14.232Z,6.88
2019-01-27T06:10:14.226Z,6.82
2019-01-27T06:11:14.235Z,6.93
2019-01-27T06:12:14.232Z,6.91
2019-01-27T06:13:14.194Z,6.78
2019-01-27T06:14:14.178Z,6.79
2019-01-27T06:15:14.166Z,6.78
2019-01-27T06:16:14.188Z,6.78
2019-01-27T06:17:14.156Z,6.73
2019-01-27T06:18:14.137Z,6.83
2019-01-27T06:19:14.128Z,6.75
2019-01-27T06:20:14.112Z,6.78
2019-01-27T06:21:14.130Z,6.71
2019-01-27T06:22:14.095Z,6.79
2019-01-27T06:23:14.091Z,6.78
2019-01-27T06:24:14.071Z,6.82
2019-01-27T06:25:14.084Z,6.81
2019-01-27T06:26:14.093Z,6.71
2019-01-27T06:27:14.046Z,6.70
2019-01-27T06:28:14.030Z,6.64
2019-01-27T06:29:14.013Z,6.79
2019-01-27T06:30:14.038Z,6.67
2019-01-27T06:31:14.011Z,6.70
2019-01-27T06:32:13.983Z,6.64
2019-01-27T06:33:13.975Z,6.70
2019-01-27T06:34:13.970Z,6.65
2019-01-27T06:35:13.950Z,6.64
2019-01-27T06:36:13.987Z,6.65
2019-01-27T06:37:13.927Z,6.67
2019-01-27T06:38:13.951Z,6.64
2019-01-27T06:39:13.904Z,6.70
2019-01-27T06:40:13.895Z,6.56
2019-01-27T06:41:13.884Z,6.70
2019-01-27T06:42:13.926Z,6.64
2019-01-27T06:43:13.885Z,6.64
2019-01-27T06:44:13.848Z,6.60
2019-01-27T06:45:13.847Z,6.56
2019-01-27T06:46:13.856Z,6.68
2019-01-27T06:47:13.873Z,6.68
2019-01-27T06:48:13.817Z,6.63
2019-01-27T06:49:13.801Z,6.64
2019-01-27T06:50:13.792Z,6.67
2019-01-27T06:51:13.802Z,6.60
2019-01-27T06:52:13.800Z,6.67
2019-01-27T06:53:13.767Z,6.70
2019-01-27T06:54:13.788Z,6.61
2019-01-27T06:55:13.731Z,6.68
2019-01-27T06:56:13.745Z,6.63
2019-01-27T06:57:13.740Z,6.65
2019-01-27T06:58:13.719Z,6.64
2019-01-27T06:59:13.696Z,6.57
2019-01-27T07:00:13.682Z,6.57
2019-01-27T07:01:13.667Z,6.53
2019-01-27T07:02:13.673Z,6.56
2019-01-27T07:03:13.680Z,6.57
2019-01-27T07:04:13.637Z,6.61
2019-01-27T07:05:13.654Z,6.63
2019-01-27T07:06:13.612Z,6.63
2019-01-27T07:07:13.614Z,6.57
2019-01-27T07:08:13.614Z,6.63
2019-01-27T07:09:13.583Z,6.56
2019-01-27T07:10:13.567Z,6.55
2019-01-27T07:11:13.577Z,6.64
2019-01-27T07:12:13.557Z,6.64
2019-01-27T07:13:13.556Z,6.65
2019-01-27T07:14:13.548Z,6.64
2019-01-27T07:15:13.531Z,6.63
2019-01-27T07:16:13.534Z,6.63
2019-01-27T07:17:13.496Z,6.64
2019-01-27T07:18:13.498Z,6.78
2019-01-27T07:19:13.469Z,6.65
2019-01-27T07:20:13.486Z,6.71
2019-01-27T07:21:13.451Z,6.82
2019-01-27T07:22:13.437Z,6.78
2019-01-27T07:23:13.443Z,6.75
2019-01-27T07:24:21.049Z,6.78
2019-01-27T07:25:13.404Z,6.81
2019-01-27T07:26:13.404Z,6.81
2019-01-27T07:27:13.392Z,6.91
2019-01-27T07:28:13.401Z,6.88
2019-01-27T07:29:13.411Z,6.91
2019-01-27T07:30:13.350Z,6.91
2019-01-27T07:31:13.346Z,6.99
2019-01-27T07:32:13.326Z,6.86
2019-01-27T07:33:13.341Z,6.97
2019-01-27T07:34:13.361Z,6.92
2019-01-27T07:35:13.295Z,6.97
2019-01-27T07:36:13.285Z,7.01
2019-01-27T07:37:13.278Z,6.97
2019-01-27T07:38:13.290Z,6.97
2019-01-27T07:39:13.256Z,7.03
2019-01-27T07:40:13.268Z,6.99
2019-01-27T07:41:13.237Z,6.91
2019-01-27T07:42:13.239Z,6.93
2019-01-27T07:43:13.228Z,6.91
2019-01-27T07:44:13.196Z,6.91
2019-01-27T07:45:13.203Z,6.86
2019-01-27T07:46:13.177Z,6.88
2019-01-27T07:47:13.186Z,6.85
2019-01-27T07:48:13.207Z,6.86
2019-01-27T07:49:13.143Z,6.89
2019-01-27T07:50:13.137Z,6.81
2019-01-27T07:51:13.137Z,6.83
2019-01-27T07:52:13.111Z,6.78
2019-01-27T07:53:13.105Z,6.79
2019-01-27T07:54:13.117Z,6.73
2019-01-27T07:55:13.103Z,6.78
2019-01-27T07:56:13.074Z,6.81
2019-01-27T07:57:13.109Z,6.82
2019-01-27T07:58:13.042Z,6.81
2019-01-27T07:59:13.060Z,6.75
2019-01-27T08:00:13.020Z,6.70
2019-01-27T08:01:13.014Z,6.74
2019-01-27T08:02:13.007Z,6.65
2019-01-27T08:03:12.987Z,6.67
2019-01-27T08:04:22.807Z,6.68
2019-01-27T08:05:12.969Z,6.67
2019-01-27T08:06:12.964Z,6.71
2019-01-27T08:07:12.950Z,6.71
2019-01-27T08:08:12.966Z,6.68
2019-01-27T08:09:21.880Z,6.70
2019-01-27T08:10:12.912Z,6.73
2019-01-27T08:11:12.899Z,6.68
2019-01-27T08:12:12.899Z,6.68
2019-01-27T08:13:12.888Z,6.82
2019-01-27T08:14:12.901Z,6.71
2019-01-27T08:15:12.860Z,6.85
2019-01-27T08:16:12.854Z,6.74
2019-01-27T08:17:12.836Z,6.81
2019-01-27T08:18:12.827Z,6.79
2019-01-27T08:19:12.950Z,6.82
2019-01-27T08:20:12.804Z,6.82
2019-01-27T08:21:12.797Z,6.89
2019-01-27T08:22:12.784Z,6.89
2019-01-27T08:23:13.750Z,6.96
2019-01-27T08:24:12.779Z,6.92
2019-01-27T08:25:20.301Z,7.00
2019-01-27T08:26:21.603Z,6.99
2019-01-27T08:27:12.726Z,7.07
2019-01-27T08:28:12.717Z,7.13
2019-01-27T08:29:12.744Z,7.15
2019-01-27T08:30:20.252Z,7.19
2019-01-27T08:31:20.231Z,7.28
2019-01-27T08:32:22.499Z,7.33
2019-01-27T08:33:21.558Z,7.39
2019-01-27T08:34:12.656Z,7.39
2019-01-27T08:35:12.671Z,7.54
2019-01-27T08:36:12.669Z,7.50
2019-01-27T08:37:12.620Z,7.66
2019-01-27T08:38:12.607Z,7.69
2019-01-27T08:39:12.635Z,7.76
2019-01-27T08:40:12.628Z,7.68
2019-01-27T08:41:12.579Z,7.73
2019-01-27T08:42:20.123Z,7.80
2019-01-27T08:43:12.552Z,7.74
2019-01-27T08:44:12.540Z,7.83
2019-01-27T08:45:21.250Z,7.87
2019-01-27T08:46:12.549Z,7.95
2019-01-27T08:47:21.082Z,7.92
2019-01-27T08:48:12.503Z,7.94
2019-01-27T08:49:22.330Z,7.92
2019-01-27T08:50:20.076Z,7.91
2019-01-27T08:51:20.077Z,7.91
2019-01-27T08:52:21.298Z,8.02
2019-01-27T08:53:20.013Z,7.91
2019-01-27T08:54:19.973Z,7.99
2019-01-27T08:55:24.142Z,8.01
2019-01-27T08:56:19.958Z,7.98
2019-01-27T08:58:30.204Z,7.98
2019-01-27T09:00:39.455Z,8.04
2019-01-27T09:01:46.981Z,8.04
2019-01-27T09:02:48.214Z,7.95
2019-01-27T09:03:48.203Z,8.02
2019-01-27T09:04:48.456Z,7.99
2019-01-27T09:05:48.382Z,7.91
2019-01-27T09:06:39.371Z,7.88
2019-01-27T09:07:39.381Z,7.91
2019-01-27T09:08:46.969Z,7.96
2019-01-27T09:09:46.872Z,7.99
2019-01-27T09:10:47.887Z,7.99
2019-01-27T09:11:39.332Z,7.92
2019-01-27T09:12:46.854Z,7.91
2019-01-27T09:13:47.857Z,7.88
2019-01-27T09:14:49.310Z,7.92
2019-01-27T09:15:39.279Z,7.92
2019-01-27T09:16:49.152Z,7.91
2019-01-27T09:17:39.257Z,7.92
2019-01-27T09:18:47.800Z,7.96
2019-01-27T09:19:46.772Z,7.91
2019-01-27T09:20:48.042Z,7.92
2019-01-27T09:21:48.052Z,7.88
2019-01-27T09:22:47.801Z,7.87
2019-01-27T09:23:46.745Z,7.86
2019-01-27T09:24:46.718Z,7.81
2019-01-27T09:25:46.713Z,7.92
2019-01-27T09:27:55.344Z,7.84
2019-01-27T09:29:02.352Z,7.78
2019-01-27T09:30:02.865Z,7.83
2019-01-27T09:31:02.846Z,7.83
2019-01-27T09:32:02.826Z,7.91
2019-01-27T09:33:05.232Z,7.86
2019-01-27T09:34:02.815Z,7.95
2019-01-27T09:35:02.802Z,7.86
2019-01-27T09:36:03.789Z,7.88
2019-01-27T09:36:55.246Z,7.88
2019-01-27T09:37:55.240Z,7.86
2019-01-27T09:38:55.214Z,7.81
2019-01-27T09:41:24.221Z,7.95
2019-01-27T09:42:31.743Z,7.91
2019-01-27T09:43:33.081Z,7.86
2019-01-27T09:44:31.740Z,7.88
2019-01-27T09:45:31.763Z,7.92
2019-01-27T09:46:31.717Z,7.91
2019-01-27T09:49:49.786Z,8.01
2019-01-27T09:52:01.266Z,7.96
2019-01-27T09:54:10.495Z,7.94
2019-01-27T09:56:19.218Z,7.94
2019-01-27T09:58:28.517Z,7.91
2019-01-27T09:59:36.979Z,7.94
2019-01-27T10:00:35.976Z,8.01
2019-01-27T10:01:35.976Z,7.98
2019-01-27T10:02:35.929Z,7.92
2019-01-27T10:03:38.321Z,8.04
2019-01-27T10:04:28.376Z,8.01
2019-01-27T10:05:35.909Z,8.06
2019-01-27T10:06:35.398Z,8.01
2019-01-27T10:07:35.899Z,8.04
2019-01-27T10:08:36.874Z,8.02
2019-01-27T10:09:36.989Z,8.05
2019-01-27T10:10:35.856Z,8.10
2019-01-27T10:11:35.842Z,8.05
2019-01-27T10:12:35.843Z,8.01
2019-01-27T10:13:37.475Z,8.09
2019-01-27T10:14:37.172Z,8.14
2019-01-27T10:15:35.801Z,8.09
2019-01-27T10:16:37.099Z,8.10
2019-01-27T10:17:36.786Z,8.12
2019-01-27T10:18:36.793Z,8.13
2019-01-27T10:19:36.606Z,8.12
2019-01-27T10:20:35.742Z,8.13
2019-01-27T10:21:35.740Z,8.28
2019-01-27T10:22:28.184Z,8.19
2019-01-27T10:23:35.713Z,8.19
2019-01-27T10:24:35.705Z,8.23
2019-01-27T10:25:37.070Z,8.23
2019-01-27T10:26:35.683Z,8.17
2019-01-27T10:27:35.678Z,8.17
2019-01-27T10:28:28.117Z,8.32
2019-01-27T10:29:28.106Z,8.29
2019-01-27T10:30:36.670Z,8.28
2019-01-27T10:31:28.086Z,8.32
2019-01-27T10:32:35.624Z,8.26
2019-01-27T10:33:36.634Z,8.20
2019-01-27T10:34:28.052Z,8.16
2019-01-27T10:35:42.718Z,8.16
2019-01-27T10:36:29.036Z,8.20
2019-01-27T10:37:28.028Z,8.23
2019-01-27T10:38:28.024Z,8.23
2019-01-27T10:39:28.002Z,8.24
2019-01-27T10:40:27.988Z,8.17
2019-01-27T10:41:28.000Z,8.20
2019-01-27T10:42:27.985Z,8.19
2019-01-27T10:43:27.969Z,8.14
2019-01-27T10:44:27.947Z,8.23
2019-01-27T10:45:36.482Z,8.17
2019-01-27T10:46:27.942Z,8.14
2019-01-27T10:47:27.914Z,8.19
2019-01-27T10:48:27.907Z,8.17
2019-01-27T10:49:27.898Z,8.21
2019-01-27T10:50:27.882Z,8.21
2019-01-27T10:51:27.893Z,8.26
2019-01-27T10:52:28.001Z,8.28
2019-01-27T10:53:34.605Z,8.19
2019-01-27T10:54:28.847Z,8.21
2019-01-27T10:55:27.826Z,8.19
2019-01-27T10:56:27.898Z,8.28
2019-01-27T10:57:27.810Z,8.24
2019-01-27T10:58:27.803Z,8.23
2019-01-27T10:59:27.900Z,8.21
2019-01-27T11:00:27.867Z,8.23
2019-01-27T11:01:27.822Z,8.21
2019-01-27T11:02:27.756Z,8.23
2019-01-27T11:03:27.793Z,8.17
2019-01-27T11:04:27.732Z,8.09
2019-01-27T11:05:27.726Z,8.19
2019-01-27T11:06:27.763Z,8.20
2019-01-27T11:07:27.706Z,8.20
2019-01-27T11:08:27.688Z,8.14
2019-01-27T11:09:27.683Z,8.13
2019-01-27T11:10:27.672Z,8.23
2019-01-27T11:11:27.685Z,8.19
2019-01-27T11:12:27.645Z,8.19
2019-01-27T11:13:27.647Z,8.24
2019-01-27T11:14:27.626Z,8.23
2019-01-27T11:15:27.613Z,8.17
2019-01-27T11:16:27.665Z,8.26
2019-01-27T11:17:27.619Z,8.26
2019-01-27T11:18:27.584Z,8.28
2019-01-27T11:19:27.571Z,8.28
2019-01-27T11:20:27.560Z,8.28
2019-01-27T11:21:28.234Z,8.37
2019-01-27T11:22:27.663Z,8.29
2019-01-27T11:23:27.530Z,8.38
2019-01-27T11:24:27.548Z,8.37
2019-01-27T11:25:27.509Z,8.37
2019-01-27T11:26:27.521Z,8.35
2019-01-27T11:27:33.011Z,8.38
2019-01-27T11:28:28.523Z,8.42
2019-01-27T11:29:27.523Z,8.35
2019-01-27T11:30:27.517Z,8.37
2019-01-27T11:31:27.457Z,8.41
2019-01-27T11:32:27.459Z,8.42
2019-01-27T11:33:27.422Z,8.38
2019-01-27T11:34:27.410Z,8.44
2019-01-27T11:35:27.406Z,8.44
2019-01-27T11:36:27.414Z,8.41
2019-01-27T11:37:27.398Z,8.38
2019-01-27T11:38:27.372Z,8.37
2019-01-27T11:39:27.378Z,8.35
2019-01-27T11:40:27.348Z,8.35
2019-01-27T11:41:27.340Z,8.37
2019-01-27T11:42:27.355Z,8.37
2019-01-27T11:43:27.320Z,8.41
2019-01-27T11:44:27.317Z,8.49
2019-01-27T11:45:27.294Z,8.46
2019-01-27T11:46:27.289Z,8.41
2019-01-27T11:47:27.294Z,8.44
2019-01-27T11:48:27.272Z,8.42
2019-01-27T11:49:27.256Z,8.38
2019-01-27T11:50:27.274Z,8.38
2019-01-27T11:51:27.232Z,8.34
2019-01-27T11:52:27.237Z,8.47
2019-01-27T11:53:27.216Z,8.37
2019-01-27T11:54:27.200Z,8.34
2019-01-27T11:55:27.193Z,8.29
2019-01-27T11:56:27.180Z,8.35
2019-01-27T11:57:27.184Z,8.35
2019-01-27T11:58:27.156Z,8.39
2019-01-27T11:59:27.143Z,8.32
2019-01-27T12:00:27.160Z,8.32
2019-01-27T12:01:27.181Z,8.34
2019-01-27T12:02:27.160Z,8.31
2019-01-27T12:03:27.100Z,8.32
2019-01-27T12:04:27.097Z,8.32
2019-01-27T12:05:27.081Z,8.38
2019-01-27T12:06:27.100Z,8.31
2019-01-27T12:07:27.059Z,8.37
2019-01-27T12:08:28.053Z,8.34
2019-01-27T12:09:27.055Z,8.34
2019-01-27T12:10:27.028Z,8.38
2019-01-27T12:11:27.017Z,8.42
2019-01-27T12:12:27.005Z,8.46
2019-01-27T12:13:27.016Z,8.41
2019-01-27T12:14:26.986Z,8.37
2019-01-27T12:15:26.974Z,8.39
2019-01-27T12:16:26.982Z,8.35
2019-01-27T12:17:26.950Z,8.24
2019-01-27T12:18:26.962Z,8.14
2019-01-27T12:19:26.931Z,8.10
2019-01-27T12:20:26.958Z,8.04
2019-01-27T12:21:26.911Z,8.17
2019-01-27T12:22:26.904Z,8.12
2019-01-27T12:23:26.889Z,8.14
2019-01-27T12:24:26.894Z,8.19
2019-01-27T12:25:26.869Z,8.12
2019-01-27T12:26:26.862Z,8.14
2019-01-27T12:27:26.846Z,8.06
2019-01-27T12:28:26.832Z,8.12
2019-01-27T12:29:26.847Z,8.06
2019-01-27T12:30:26.812Z,8.04
2019-01-27T12:31:26.799Z,8.04
2019-01-27T12:32:26.795Z,7.98
2019-01-27T12:33:26.778Z,8.06
2019-01-27T12:34:26.769Z,7.99
2019-01-27T12:35:26.774Z,8.05
2019-01-27T12:36:26.746Z,8.06
2019-01-27T12:37:26.751Z,8.10
2019-01-27T12:38:26.736Z,8.12
2019-01-27T12:39:26.726Z,8.09
2019-01-27T12:40:26.726Z,8.12
2019-01-27T12:41:26.699Z,8.09
2019-01-27T12:42:26.687Z,8.21
2019-01-27T12:43:26.681Z,8.21
2019-01-27T12:44:26.662Z,8.24
2019-01-27T12:45:26.682Z,8.24
2019-01-27T12:46:26.643Z,8.53
2019-01-27T12:47:26.633Z,8.49
2019-01-27T12:48:26.625Z,8.57
2019-01-27T12:49:26.616Z,8.55
2019-01-27T12:50:26.616Z,8.67
2019-01-27T12:51:26.595Z,8.53
2019-01-27T12:52:26.577Z,8.60
2019-01-27T12:53:26.572Z,8.75
2019-01-27T12:54:26.556Z,8.77
2019-01-27T12:55:26.574Z,8.83
2019-01-27T12:56:26.532Z,8.93
2019-01-27T12:57:26.534Z,8.98
2019-01-27T12:58:34.054Z,8.98
2019-01-27T12:59:26.503Z,8.89
2019-01-27T13:00:26.495Z,8.80
2019-01-27T13:01:26.513Z,8.81
2019-01-27T13:02:26.473Z,8.83
2019-01-27T13:03:26.457Z,8.81
2019-01-27T13:04:26.445Z,8.85
2019-01-27T13:05:26.461Z,8.88
2019-01-27T13:06:26.446Z,8.98
2019-01-27T13:07:26.422Z,8.99
2019-01-27T13:08:26.428Z,9.01
2019-01-27T13:09:26.409Z,8.92
2019-01-27T13:10:26.382Z,8.88
2019-01-27T13:11:26.381Z,8.93
2019-01-27T13:12:26.360Z,8.95
2019-01-27T13:13:26.372Z,8.93
2019-01-27T13:14:26.341Z,8.92
2019-01-27T13:15:26.353Z,8.81
2019-01-27T13:16:26.318Z,8.77
2019-01-27T13:17:26.305Z,8.74
2019-01-27T13:18:26.316Z,8.77
2019-01-27T13:19:34.832Z,8.70
2019-01-27T13:20:26.272Z,8.60
2019-01-27T13:21:26.261Z,8.68
2019-01-27T13:22:26.254Z,8.67
2019-01-27T13:23:26.242Z,8.56
2019-01-27T13:24:35.903Z,8.60
2019-01-27T13:25:26.225Z,8.62
2019-01-27T13:26:26.212Z,8.59
2019-01-27T13:27:33.741Z,8.59
2019-01-27T13:28:26.191Z,8.50
2019-01-27T13:29:26.197Z,8.50
2019-01-27T13:30:26.166Z,8.52